sensor_id;sensor_type;location;lat;lon;timestamp;P1;durP1;ratioP1;P2;durP2;ratioP2
50880;SDS011;36858;47.832;-3.800;2023-07-16T00:00:13;17.30;;;8.67;;
50880;SDS011;36858;47.832;-3.800;2023-07-16T00:02:42;22.67;;;8.97;;
50880;SDS011;36858;47.832;-3.800;2023-07-16T00:05:09;25.27;;;9.70;;
50880;SDS011;36858;47.832;-3.800;2023-07-16T00:07:36;26.10;;;8.80;;
50880;SDS011;36858;47.832;-3.800;2023-07-16T00:10:03;19.37;;;8.90;;
50880;SDS011;36858;47.832;-3.800;2023-07-16T00:12:30;16.73;;;7.80;;
50880;SDS011;36858;47.832;-3.800;2023-07-16T00:14:57;18.53;;;8.77;;
50880;SDS011;36858;47.832;-3.800;2023-07-16T00:17:24;18.73;;;7.40;;
50880;SDS011;36858;47.832;-3.800;2023-07-16T00:19:51;18.07;;;7.53;;
50880;SDS011;36858;47.832;-3.800;2023-07-16T00:22:18;25.80;;;8.13;;
50880;SDS011;36858;47.832;-3.800;2023-07-16T00:24:44;13.40;;;6.37;;
50880;SDS011;36858;47.832;-3.800;2023-07-16T00:27:11;17.63;;;7.37;;
50880;SDS011;36858;47.832;-3.800;2023-07-16T00:29:38;18.40;;;7.10;;
50880;SDS011;36858;47.832;-3.800;2023-07-16T00:32:05;18.57;;;6.33;;
50880;SDS011;36858;47.832;-3.800;2023-07-16T00:34:32;18.43;;;7.30;;
50880;SDS011;36858;47.832;-3.800;2023-07-16T00:36:59;15.07;;;6.67;;
50880;SDS011;36858;47.832;-3.800;2023-07-16T00:39:28;15.57;;;5.80;;
50880;SDS011;36858;47.832;-3.800;2023-07-16T00:41:56;19.33;;;7.17;;
50880;SDS011;36858;47.832;-3.800;2023-07-16T00:44:23;19.43;;;5.63;;
50880;SDS011;36858;47.832;-3.800;2023-07-16T00:46:50;21.70;;;6.10;;
50880;SDS011;36858;47.832;-3.800;2023-07-16T00:49:17;16.37;;;6.20;;
50880;SDS011;36858;47.832;-3.800;2023-07-16T00:51:44;16.07;;;6.43;;
50880;SDS011;36858;47.832;-3.800;2023-07-16T00:54:12;16.13;;;7.33;;
50880;SDS011;36858;47.832;-3.800;2023-07-16T00:56:39;17.93;;;6.10;;
50880;SDS011;36858;47.832;-3.800;2023-07-16T00:59:06;21.57;;;7.10;;
50880;SDS011;36858;47.832;-3.800;2023-07-16T01:01:33;14.13;;;5.70;;
50880;SDS011;36858;47.832;-3.800;2023-07-16T01:04:00;14.00;;;6.33;;
50880;SDS011;36858;47.832;-3.800;2023-07-16T01:09:26;13.47;;;5.63;;
50880;SDS011;36858;47.832;-3.800;2023-07-16T01:11:55;9.43;;;5.57;;
50880;SDS011;36858;47.832;-3.800;2023-07-16T01:14:23;12.43;;;5.80;;
50880;SDS011;36858;47.832;-3.800;2023-07-16T01:16:50;14.67;;;5.50;;
50880;SDS011;36858;47.832;-3.800;2023-07-16T01:19:19;11.80;;;5.47;;
50880;SDS011;36858;47.832;-3.800;2023-07-16T01:29:54;13.47;;;4.47;;
50880;SDS011;36858;47.832;-3.800;2023-07-16T01:32:25;11.73;;;4.77;;
50880;SDS011;36858;47.832;-3.800;2023-07-16T01:34:52;13.00;;;5.20;;
50880;SDS011;36858;47.832;-3.800;2023-07-16T01:37:19;11.80;;;4.77;;
50880;SDS011;36858;47.832;-3.800;2023-07-16T01:39:46;15.97;;;5.30;;
50880;SDS011;36858;47.832;-3.800;2023-07-16T01:42:13;11.73;;;4.73;;
50880;SDS011;36858;47.832;-3.800;2023-07-16T01:44:40;11.80;;;5.10;;
50880;SDS011;36858;47.832;-3.800;2023-07-16T01:47:11;14.73;;;6.03;;
50880;SDS011;36858;47.832;-3.800;2023-07-16T01:49:40;13.33;;;6.13;;
50880;SDS011;36858;47.832;-3.800;2023-07-16T01:52:08;12.73;;;5.93;;
50880;SDS011;36858;47.832;-3.800;2023-07-16T01:54:36;14.73;;;6.90;;
50880;SDS011;36858;47.832;-3.800;2023-07-16T01:57:03;16.90;;;6.73;;
50880;SDS011;36858;47.832;-3.800;2023-07-16T01:59:30;15.70;;;6.77;;
50880;SDS011;36858;47.832;-3.800;2023-07-16T02:01:57;18.47;;;7.47;;
50880;SDS011;36858;47.832;-3.800;2023-07-16T02:04:24;22.13;;;7.63;;
50880;SDS011;36858;47.832;-3.800;2023-07-16T02:06:51;18.00;;;8.03;;
50880;SDS011;36858;47.832;-3.800;2023-07-16T02:09:18;23.93;;;8.47;;
50880;SDS011;36858;47.832;-3.800;2023-07-16T02:11:45;19.83;;;7.77;;
50880;SDS011;36858;47.832;-3.800;2023-07-16T02:14:12;19.43;;;7.67;;
50880;SDS011;36858;47.832;-3.800;2023-07-16T02:16:40;19.50;;;7.00;;
50880;SDS011;36858;47.832;-3.800;2023-07-16T02:19:07;17.70;;;7.23;;
50880;SDS011;36858;47.832;-3.800;2023-07-16T02:21:34;11.57;;;5.53;;
50880;SDS011;36858;47.832;-3.800;2023-07-16T02:24:01;16.40;;;5.03;;
50880;SDS011;36858;47.832;-3.800;2023-07-16T02:26:29;15.40;;;5.90;;
50880;SDS011;36858;47.832;-3.800;2023-07-16T02:28:56;21.80;;;7.17;;
50880;SDS011;36858;47.832;-3.800;2023-07-16T02:31:25;10.60;;;5.10;;
50880;SDS011;36858;47.832;-3.800;2023-07-16T02:33:52;12.33;;;4.60;;
50880;SDS011;36858;47.832;-3.800;2023-07-16T02:36:19;8.77;;;3.90;;
50880;SDS011;36858;47.832;-3.800;2023-07-16T02:38:45;10.37;;;3.97;;
50880;SDS011;36858;47.832;-3.800;2023-07-16T02:41:12;11.07;;;4.17;;
50880;SDS011;36858;47.832;-3.800;2023-07-16T02:43:39;12.40;;;3.70;;
50880;SDS011;36858;47.832;-3.800;2023-07-16T02:46:06;14.93;;;3.40;;
50880;SDS011;36858;47.832;-3.800;2023-07-16T02:48:33;9.40;;;3.33;;
50880;SDS011;36858;47.832;-3.800;2023-07-16T02:51:00;9.50;;;3.67;;
50880;SDS011;36858;47.832;-3.800;2023-07-16T02:53:27;6.30;;;2.40;;
50880;SDS011;36858;47.832;-3.800;2023-07-16T02:55:54;11.17;;;2.53;;
50880;SDS011;36858;47.832;-3.800;2023-07-16T02:58:21;6.23;;;2.43;;
50880;SDS011;36858;47.832;-3.800;2023-07-16T03:00:47;5.77;;;2.77;;
50880;SDS011;36858;47.832;-3.800;2023-07-16T03:03:14;5.50;;;2.00;;
50880;SDS011;36858;47.832;-3.800;2023-07-16T03:05:41;7.30;;;2.10;;
50880;SDS011;36858;47.832;-3.800;2023-07-16T03:08:08;5.37;;;2.27;;
50880;SDS011;36858;47.832;-3.800;2023-07-16T03:10:35;9.73;;;2.07;;
50880;SDS011;36858;47.832;-3.800;2023-07-16T03:13:02;6.53;;;1.60;;
50880;SDS011;36858;47.832;-3.800;2023-07-16T03:15:29;8.07;;;2.17;;
50880;SDS011;36858;47.832;-3.800;2023-07-16T03:17:56;6.10;;;2.03;;
50880;SDS011;36858;47.832;-3.800;2023-07-16T03:20:23;3.07;;;1.50;;
50880;SDS011;36858;47.832;-3.800;2023-07-16T03:22:50;6.20;;;1.50;;
50880;SDS011;36858;47.832;-3.800;2023-07-16T03:25:17;3.77;;;1.53;;
50880;SDS011;36858;47.832;-3.800;2023-07-16T03:27:44;5.40;;;1.47;;
50880;SDS011;36858;47.832;-3.800;2023-07-16T03:30:11;4.13;;;1.47;;
50880;SDS011;36858;47.832;-3.800;2023-07-16T03:32:38;7.50;;;2.50;;
50880;SDS011;36858;47.832;-3.800;2023-07-16T03:35:17;3.53;;;1.27;;
50880;SDS011;36858;47.832;-3.800;2023-07-16T03:37:44;6.57;;;1.30;;
50880;SDS011;36858;47.832;-3.800;2023-07-16T03:40:12;5.37;;;1.10;;
50880;SDS011;36858;47.832;-3.800;2023-07-16T03:42:41;3.50;;;1.10;;
50880;SDS011;36858;47.832;-3.800;2023-07-16T03:45:09;4.60;;;1.00;;
50880;SDS011;36858;47.832;-3.800;2023-07-16T03:47:36;6.33;;;1.10;;
50880;SDS011;36858;47.832;-3.800;2023-07-16T03:50:04;2.27;;;1.13;;
50880;SDS011;36858;47.832;-3.800;2023-07-16T03:52:31;3.07;;;1.30;;
50880;SDS011;36858;47.832;-3.800;2023-07-16T03:54:58;3.37;;;1.20;;
50880;SDS011;36858;47.832;-3.800;2023-07-16T03:57:26;3.60;;;1.20;;
50880;SDS011;36858;47.832;-3.800;2023-07-16T03:59:54;3.40;;;1.27;;
50880;SDS011;36858;47.832;-3.800;2023-07-16T04:02:21;3.50;;;1.00;;
50880;SDS011;36858;47.832;-3.800;2023-07-16T04:04:49;4.50;;;1.10;;
50880;SDS011;36858;47.832;-3.800;2023-07-16T04:07:17;3.87;;;1.47;;
50880;SDS011;36858;47.832;-3.800;2023-07-16T04:09:44;7.23;;;1.70;;
50880;SDS011;36858;47.832;-3.800;2023-07-16T04:12:11;7.90;;;1.27;;
50880;SDS011;36858;47.832;-3.800;2023-07-16T04:14:38;4.73;;;1.53;;
50880;SDS011;36858;47.832;-3.800;2023-07-16T04:17:05;5.47;;;1.30;;
50880;SDS011;36858;47.832;-3.800;2023-07-16T04:19:32;4.67;;;1.40;;
50880;SDS011;36858;47.832;-3.800;2023-07-16T04:21:59;5.23;;;1.60;;
50880;SDS011;36858;47.832;-3.800;2023-07-16T04:24:26;7.10;;;1.47;;
50880;SDS011;36858;47.832;-3.800;2023-07-16T04:26:53;4.07;;;1.30;;
50880;SDS011;36858;47.832;-3.800;2023-07-16T04:29:20;7.50;;;1.67;;
50880;SDS011;36858;47.832;-3.800;2023-07-16T04:31:47;6.97;;;1.57;;
50880;SDS011;36858;47.832;-3.800;2023-07-16T04:34:14;4.63;;;1.73;;
50880;SDS011;36858;47.832;-3.800;2023-07-16T04:36:42;4.60;;;1.33;;
50880;SDS011;36858;47.832;-3.800;2023-07-16T04:39:09;8.63;;;2.00;;
50880;SDS011;36858;47.832;-3.800;2023-07-16T04:41:36;4.30;;;1.40;;
50880;SDS011;36858;47.832;-3.800;2023-07-16T04:44:04;5.87;;;1.70;;
50880;SDS011;36858;47.832;-3.800;2023-07-16T04:46:31;6.60;;;1.80;;
50880;SDS011;36858;47.832;-3.800;2023-07-16T04:48:58;8.17;;;1.43;;
50880;SDS011;36858;47.832;-3.800;2023-07-16T04:51:25;6.27;;;1.63;;
50880;SDS011;36858;47.832;-3.800;2023-07-16T04:53:52;3.23;;;1.27;;
50880;SDS011;36858;47.832;-3.800;2023-07-16T04:56:19;6.87;;;1.40;;
50880;SDS011;36858;47.832;-3.800;2023-07-16T04:58:46;5.87;;;2.20;;
50880;SDS011;36858;47.832;-3.800;2023-07-16T05:01:13;4.07;;;1.50;;
50880;SDS011;36858;47.832;-3.800;2023-07-16T05:03:40;5.27;;;1.60;;
50880;SDS011;36858;47.832;-3.800;2023-07-16T05:06:07;5.17;;;1.57;;
50880;SDS011;36858;47.832;-3.800;2023-07-16T05:08:34;6.67;;;2.00;;
50880;SDS011;36858;47.832;-3.800;2023-07-16T05:11:01;4.37;;;1.53;;
50880;SDS011;36858;47.832;-3.800;2023-07-16T05:13:28;5.60;;;1.80;;
50880;SDS011;36858;47.832;-3.800;2023-07-16T05:15:55;3.90;;;1.50;;
50880;SDS011;36858;47.832;-3.800;2023-07-16T05:18:22;9.23;;;2.10;;
50880;SDS011;36858;47.832;-3.800;2023-07-16T05:20:49;6.70;;;2.40;;
50880;SDS011;36858;47.832;-3.800;2023-07-16T05:23:16;6.07;;;2.50;;
50880;SDS011;36858;47.832;-3.800;2023-07-16T05:25:46;4.50;;;1.60;;
50880;SDS011;36858;47.832;-3.800;2023-07-16T05:28:14;5.43;;;2.37;;
50880;SDS011;36858;47.832;-3.800;2023-07-16T05:30:42;6.03;;;2.07;;
50880;SDS011;36858;47.832;-3.800;2023-07-16T05:33:10;7.67;;;1.90;;
50880;SDS011;36858;47.832;-3.800;2023-07-16T05:35:38;4.33;;;1.50;;
50880;SDS011;36858;47.832;-3.800;2023-07-16T05:38:05;6.47;;;1.50;;
50880;SDS011;36858;47.832;-3.800;2023-07-16T05:40:32;4.87;;;1.53;;
50880;SDS011;36858;47.832;-3.800;2023-07-16T05:42:59;5.80;;;2.23;;
50880;SDS011;36858;47.832;-3.800;2023-07-16T05:45:26;5.47;;;1.50;;
50880;SDS011;36858;47.832;-3.800;2023-07-16T05:47:53;3.13;;;1.70;;
50880;SDS011;36858;47.832;-3.800;2023-07-16T05:50:20;4.60;;;2.27;;
50880;SDS011;36858;47.832;-3.800;2023-07-16T05:52:47;5.27;;;2.17;;
50880;SDS011;36858;47.832;-3.800;2023-07-16T05:55:15;6.03;;;1.50;;
50880;SDS011;36858;47.832;-3.800;2023-07-16T05:57:42;4.43;;;1.37;;
50880;SDS011;36858;47.832;-3.800;2023-07-16T06:00:09;5.33;;;1.53;;
50880;SDS011;36858;47.832;-3.800;2023-07-16T06:02:37;5.83;;;1.37;;
50880;SDS011;36858;47.832;-3.800;2023-07-16T06:05:04;7.23;;;1.50;;
50880;SDS011;36858;47.832;-3.800;2023-07-16T06:07:31;8.27;;;1.47;;
50880;SDS011;36858;47.832;-3.800;2023-07-16T06:09:58;5.33;;;1.83;;
50880;SDS011;36858;47.832;-3.800;2023-07-16T06:12:25;4.33;;;1.30;;
50880;SDS011;36858;47.832;-3.800;2023-07-16T06:14:52;4.87;;;1.47;;
50880;SDS011;36858;47.832;-3.800;2023-07-16T06:17:19;6.97;;;1.77;;
50880;SDS011;36858;47.832;-3.800;2023-07-16T06:19:46;6.53;;;1.33;;
50880;SDS011;36858;47.832;-3.800;2023-07-16T06:22:16;10.77;;;2.33;;
50880;SDS011;36858;47.832;-3.800;2023-07-16T06:24:43;4.80;;;1.40;;
50880;SDS011;36858;47.832;-3.800;2023-07-16T06:27:10;7.50;;;2.63;;
50880;SDS011;36858;47.832;-3.800;2023-07-16T06:29:37;6.17;;;1.50;;
50880;SDS011;36858;47.832;-3.800;2023-07-16T06:32:04;5.33;;;1.87;;
50880;SDS011;36858;47.832;-3.800;2023-07-16T06:34:31;4.47;;;1.43;;
50880;SDS011;36858;47.832;-3.800;2023-07-16T06:36:58;6.60;;;1.73;;
50880;SDS011;36858;47.832;-3.800;2023-07-16T06:39:25;4.00;;;1.40;;
50880;SDS011;36858;47.832;-3.800;2023-07-16T06:41:52;3.57;;;1.50;;
50880;SDS011;36858;47.832;-3.800;2023-07-16T06:44:19;3.73;;;1.60;;
50880;SDS011;36858;47.832;-3.800;2023-07-16T06:46:46;3.67;;;1.37;;
50880;SDS011;36858;47.832;-3.800;2023-07-16T06:49:13;5.13;;;1.63;;
50880;SDS011;36858;47.832;-3.800;2023-07-16T06:51:40;7.63;;;1.77;;
50880;SDS011;36858;47.832;-3.800;2023-07-16T06:54:07;3.17;;;1.13;;
50880;SDS011;36858;47.832;-3.800;2023-07-16T06:56:34;3.47;;;1.60;;
50880;SDS011;36858;47.832;-3.800;2023-07-16T06:59:01;3.67;;;1.53;;
50880;SDS011;36858;47.832;-3.800;2023-07-16T07:01:28;6.97;;;1.70;;
50880;SDS011;36858;47.832;-3.800;2023-07-16T07:03:55;4.30;;;1.53;;
50880;SDS011;36858;47.832;-3.800;2023-07-16T07:06:22;7.70;;;1.70;;
50880;SDS011;36858;47.832;-3.800;2023-07-16T07:08:51;5.17;;;1.60;;
50880;SDS011;36858;47.832;-3.800;2023-07-16T07:11:18;6.30;;;1.60;;
50880;SDS011;36858;47.832;-3.800;2023-07-16T07:13:45;3.50;;;1.63;;
50880;SDS011;36858;47.832;-3.800;2023-07-16T07:16:12;4.33;;;1.60;;
50880;SDS011;36858;47.832;-3.800;2023-07-16T07:18:40;3.27;;;1.40;;
50880;SDS011;36858;47.832;-3.800;2023-07-16T07:21:07;5.03;;;1.30;;
50880;SDS011;36858;47.832;-3.800;2023-07-16T07:23:33;5.50;;;1.57;;
50880;SDS011;36858;47.832;-3.800;2023-07-16T07:26:00;3.37;;;1.37;;
50880;SDS011;36858;47.832;-3.800;2023-07-16T07:28:27;2.90;;;1.50;;
50880;SDS011;36858;47.832;-3.800;2023-07-16T07:30:55;4.47;;;1.73;;
50880;SDS011;36858;47.832;-3.800;2023-07-16T07:33:22;3.80;;;1.67;;
50880;SDS011;36858;47.832;-3.800;2023-07-16T07:35:49;3.53;;;1.50;;
50880;SDS011;36858;47.832;-3.800;2023-07-16T07:38:15;5.67;;;1.50;;
50880;SDS011;36858;47.832;-3.800;2023-07-16T07:40:43;6.27;;;2.00;;
50880;SDS011;36858;47.832;-3.800;2023-07-16T07:43:10;5.73;;;1.57;;
50880;SDS011;36858;47.832;-3.800;2023-07-16T07:45:37;4.27;;;1.30;;
50880;SDS011;36858;47.832;-3.800;2023-07-16T07:48:04;4.43;;;1.40;;
50880;SDS011;36858;47.832;-3.800;2023-07-16T07:50:31;3.73;;;1.50;;
50880;SDS011;36858;47.832;-3.800;2023-07-16T07:52:58;3.07;;;1.40;;
50880;SDS011;36858;47.832;-3.800;2023-07-16T07:55:25;4.50;;;1.50;;
50880;SDS011;36858;47.832;-3.800;2023-07-16T07:57:52;3.17;;;1.30;;
50880;SDS011;36858;47.832;-3.800;2023-07-16T08:00:19;3.80;;;1.43;;
50880;SDS011;36858;47.832;-3.800;2023-07-16T08:02:46;3.07;;;1.20;;
50880;SDS011;36858;47.832;-3.800;2023-07-16T08:05:14;4.80;;;1.23;;
50880;SDS011;36858;47.832;-3.800;2023-07-16T08:07:41;3.53;;;1.70;;
50880;SDS011;36858;47.832;-3.800;2023-07-16T08:10:08;3.87;;;1.63;;
50880;SDS011;36858;47.832;-3.800;2023-07-16T08:12:35;4.77;;;1.50;;
50880;SDS011;36858;47.832;-3.800;2023-07-16T08:15:02;7.20;;;1.63;;
50880;SDS011;36858;47.832;-3.800;2023-07-16T08:17:30;3.50;;;1.30;;
50880;SDS011;36858;47.832;-3.800;2023-07-16T08:19:57;5.33;;;1.60;;
50880;SDS011;36858;47.832;-3.800;2023-07-16T08:22:24;4.60;;;1.50;;
50880;SDS011;36858;47.832;-3.800;2023-07-16T08:24:51;7.33;;;2.33;;
50880;SDS011;36858;47.832;-3.800;2023-07-16T08:27:18;4.50;;;1.53;;
50880;SDS011;36858;47.832;-3.800;2023-07-16T08:29:46;7.13;;;1.80;;
50880;SDS011;36858;47.832;-3.800;2023-07-16T08:32:13;4.13;;;1.70;;
50880;SDS011;36858;47.832;-3.800;2023-07-16T08:34:40;3.53;;;1.33;;
50880;SDS011;36858;47.832;-3.800;2023-07-16T08:37:06;5.50;;;1.43;;
50880;SDS011;36858;47.832;-3.800;2023-07-16T08:39:33;6.53;;;1.60;;
50880;SDS011;36858;47.832;-3.800;2023-07-16T08:42:00;7.63;;;1.77;;
50880;SDS011;36858;47.832;-3.800;2023-07-16T08:44:28;10.70;;;2.13;;
50880;SDS011;36858;47.832;-3.800;2023-07-16T08:46:55;5.73;;;2.03;;
50880;SDS011;36858;47.832;-3.800;2023-07-16T08:49:23;5.13;;;1.50;;
50880;SDS011;36858;47.832;-3.800;2023-07-16T08:51:50;6.73;;;1.80;;
50880;SDS011;36858;47.832;-3.800;2023-07-16T08:54:18;4.67;;;1.70;;
50880;SDS011;36858;47.832;-3.800;2023-07-16T08:56:47;6.13;;;1.60;;
50880;SDS011;36858;47.832;-3.800;2023-07-16T08:59:14;6.83;;;1.80;;
50880;SDS011;36858;47.832;-3.800;2023-07-16T09:01:41;6.77;;;1.97;;
50880;SDS011;36858;47.832;-3.800;2023-07-16T09:04:09;3.97;;;1.80;;
50880;SDS011;36858;47.832;-3.800;2023-07-16T09:06:36;6.17;;;1.53;;
50880;SDS011;36858;47.832;-3.800;2023-07-16T09:09:03;5.63;;;2.00;;
50880;SDS011;36858;47.832;-3.800;2023-07-16T09:11:30;4.27;;;1.93;;
50880;SDS011;36858;47.832;-3.800;2023-07-16T09:13:57;4.97;;;2.17;;
50880;SDS011;36858;47.832;-3.800;2023-07-16T09:16:23;6.43;;;2.03;;
50880;SDS011;36858;47.832;-3.800;2023-07-16T09:18:50;8.53;;;2.20;;
50880;SDS011;36858;47.832;-3.800;2023-07-16T09:21:17;11.23;;;3.57;;
50880;SDS011;36858;47.832;-3.800;2023-07-16T09:23:44;6.77;;;2.03;;
50880;SDS011;36858;47.832;-3.800;2023-07-16T09:26:11;10.07;;;1.93;;
50880;SDS011;36858;47.832;-3.800;2023-07-16T09:28:38;6.73;;;2.23;;
50880;SDS011;36858;47.832;-3.800;2023-07-16T09:31:06;3.77;;;1.67;;
50880;SDS011;36858;47.832;-3.800;2023-07-16T09:33:34;6.20;;;1.97;;
50880;SDS011;36858;47.832;-3.800;2023-07-16T09:36:01;8.10;;;2.17;;
50880;SDS011;36858;47.832;-3.800;2023-07-16T09:38:29;6.23;;;2.00;;
50880;SDS011;36858;47.832;-3.800;2023-07-16T09:40:57;4.73;;;1.90;;
50880;SDS011;36858;47.832;-3.800;2023-07-16T09:43:24;7.43;;;1.93;;
50880;SDS011;36858;47.832;-3.800;2023-07-16T09:45:51;6.13;;;2.00;;
50880;SDS011;36858;47.832;-3.800;2023-07-16T09:48:18;3.50;;;1.50;;
50880;SDS011;36858;47.832;-3.800;2023-07-16T09:50:49;4.53;;;1.73;;
50880;SDS011;36858;47.832;-3.800;2023-07-16T09:53:19;4.50;;;1.77;;
50880;SDS011;36858;47.832;-3.800;2023-07-16T09:55:47;4.87;;;1.80;;
50880;SDS011;36858;47.832;-3.800;2023-07-16T09:58:15;7.70;;;2.10;;
50880;SDS011;36858;47.832;-3.800;2023-07-16T10:00:46;5.20;;;2.00;;
50880;SDS011;36858;47.832;-3.800;2023-07-16T10:03:15;7.33;;;2.73;;
50880;SDS011;36858;47.832;-3.800;2023-07-16T10:05:43;5.07;;;2.20;;
50880;SDS011;36858;47.832;-3.800;2023-07-16T10:08:17;7.87;;;2.53;;
50880;SDS011;36858;47.832;-3.800;2023-07-16T10:10:46;6.37;;;2.20;;
50880;SDS011;36858;47.832;-3.800;2023-07-16T10:13:15;5.50;;;2.23;;
50880;SDS011;36858;47.832;-3.800;2023-07-16T10:15:57;5.13;;;2.50;;
50880;SDS011;36858;47.832;-3.800;2023-07-16T10:18:26;4.90;;;2.40;;
50880;SDS011;36858;47.832;-3.800;2023-07-16T10:20:59;4.67;;;2.20;;
50880;SDS011;36858;47.832;-3.800;2023-07-16T10:23:36;16.13;;;2.90;;
50880;SDS011;36858;47.832;-3.800;2023-07-16T10:26:05;5.17;;;2.50;;
50880;SDS011;36858;47.832;-3.800;2023-07-16T10:28:33;8.50;;;2.93;;
50880;SDS011;36858;47.832;-3.800;2023-07-16T10:31:00;5.70;;;2.50;;
50880;SDS011;36858;47.832;-3.800;2023-07-16T10:33:27;7.60;;;3.27;;
50880;SDS011;36858;47.832;-3.800;2023-07-16T10:35:56;6.80;;;2.80;;
50880;SDS011;36858;47.832;-3.800;2023-07-16T10:38:23;7.37;;;3.23;;
50880;SDS011;36858;47.832;-3.800;2023-07-16T10:40:50;8.90;;;3.23;;
50880;SDS011;36858;47.832;-3.800;2023-07-16T10:43:17;6.53;;;3.10;;
50880;SDS011;36858;47.832;-3.800;2023-07-16T10:45:44;7.07;;;3.20;;
50880;SDS011;36858;47.832;-3.800;2023-07-16T10:48:13;7.40;;;3.20;;
50880;SDS011;36858;47.832;-3.800;2023-07-16T10:50:41;9.87;;;3.70;;
50880;SDS011;36858;47.832;-3.800;2023-07-16T10:53:08;6.07;;;3.53;;
50880;SDS011;36858;47.832;-3.800;2023-07-16T10:55:35;8.53;;;4.37;;
50880;SDS011;36858;47.832;-3.800;2023-07-16T10:58:04;7.60;;;4.07;;
50880;SDS011;36858;47.832;-3.800;2023-07-16T11:00:39;9.53;;;4.20;;
50880;SDS011;36858;47.832;-3.800;2023-07-16T11:03:06;6.27;;;3.80;;
50880;SDS011;36858;47.832;-3.800;2023-07-16T11:05:33;6.33;;;3.77;;
50880;SDS011;36858;47.832;-3.800;2023-07-16T11:08:00;7.03;;;4.27;;
50880;SDS011;36858;47.832;-3.800;2023-07-16T11:10:28;7.23;;;4.47;;
50880;SDS011;36858;47.832;-3.800;2023-07-16T11:12:56;6.37;;;3.83;;
50880;SDS011;36858;47.832;-3.800;2023-07-16T11:15:32;6.93;;;4.47;;
50880;SDS011;36858;47.832;-3.800;2023-07-16T11:18:03;7.93;;;4.10;;
50880;SDS011;36858;47.832;-3.800;2023-07-16T11:20:30;13.07;;;6.53;;
50880;SDS011;36858;47.832;-3.800;2023-07-16T11:22:58;10.73;;;5.70;;
50880;SDS011;36858;47.832;-3.800;2023-07-16T11:25:26;10.33;;;5.10;;
50880;SDS011;36858;47.832;-3.800;2023-07-16T11:27:54;6.87;;;4.13;;
50880;SDS011;36858;47.832;-3.800;2023-07-16T11:30:23;7.70;;;4.60;;
50880;SDS011;36858;47.832;-3.800;2023-07-16T11:32:51;6.83;;;4.67;;
50880;SDS011;36858;47.832;-3.800;2023-07-16T11:35:18;8.97;;;4.80;;
50880;SDS011;36858;47.832;-3.800;2023-07-16T11:37:47;8.50;;;5.67;;
50880;SDS011;36858;47.832;-3.800;2023-07-16T11:40:15;10.63;;;5.10;;
50880;SDS011;36858;47.832;-3.800;2023-07-16T11:42:46;10.27;;;5.00;;
50880;SDS011;36858;47.832;-3.800;2023-07-16T11:45:20;7.10;;;4.97;;
50880;SDS011;36858;47.832;-3.800;2023-07-16T11:47:49;11.03;;;5.80;;
50880;SDS011;36858;47.832;-3.800;2023-07-16T11:50:16;9.63;;;5.70;;
50880;SDS011;36858;47.832;-3.800;2023-07-16T11:52:51;11.90;;;6.27;;
50880;SDS011;36858;47.832;-3.800;2023-07-16T11:55:21;9.03;;;5.57;;
50880;SDS011;36858;47.832;-3.800;2023-07-16T11:57:48;9.13;;;5.47;;
50880;SDS011;36858;47.832;-3.800;2023-07-16T12:00:15;10.47;;;6.03;;
50880;SDS011;36858;47.832;-3.800;2023-07-16T12:02:43;10.00;;;5.33;;
50880;SDS011;36858;47.832;-3.800;2023-07-16T12:05:18;9.00;;;5.43;;
50880;SDS011;36858;47.832;-3.800;2023-07-16T12:07:51;11.53;;;5.83;;
50880;SDS011;36858;47.832;-3.800;2023-07-16T12:10:18;10.07;;;6.23;;
50880;SDS011;36858;47.832;-3.800;2023-07-16T12:12:45;8.03;;;5.80;;
50880;SDS011;36858;47.832;-3.800;2023-07-16T12:15:11;11.20;;;5.53;;
50880;SDS011;36858;47.832;-3.800;2023-07-16T12:17:38;11.93;;;6.13;;
50880;SDS011;36858;47.832;-3.800;2023-07-16T12:20:05;9.80;;;5.90;;
50880;SDS011;36858;47.832;-3.800;2023-07-16T12:22:33;9.13;;;5.17;;
50880;SDS011;36858;47.832;-3.800;2023-07-16T12:25:00;11.40;;;6.30;;
50880;SDS011;36858;47.832;-3.800;2023-07-16T12:27:27;7.07;;;5.20;;
50880;SDS011;36858;47.832;-3.800;2023-07-16T12:29:54;8.83;;;5.40;;
50880;SDS011;36858;47.832;-3.800;2023-07-16T12:32:21;6.53;;;5.10;;
50880;SDS011;36858;47.832;-3.800;2023-07-16T12:34:48;10.10;;;4.97;;
50880;SDS011;36858;47.832;-3.800;2023-07-16T12:37:15;8.77;;;5.27;;
50880;SDS011;36858;47.832;-3.800;2023-07-16T12:39:43;11.97;;;6.20;;
50880;SDS011;36858;47.832;-3.800;2023-07-16T12:42:10;7.90;;;5.90;;
50880;SDS011;36858;47.832;-3.800;2023-07-16T12:44:37;9.13;;;5.43;;
50880;SDS011;36858;47.832;-3.800;2023-07-16T12:47:04;6.90;;;5.13;;
50880;SDS011;36858;47.832;-3.800;2023-07-16T12:49:31;8.57;;;5.23;;
50880;SDS011;36858;47.832;-3.800;2023-07-16T12:51:58;7.67;;;5.47;;
50880;SDS011;36858;47.832;-3.800;2023-07-16T12:54:25;10.27;;;4.90;;
50880;SDS011;36858;47.832;-3.800;2023-07-16T12:56:52;9.57;;;5.70;;
50880;SDS011;36858;47.832;-3.800;2023-07-16T12:59:19;9.60;;;5.50;;
50880;SDS011;36858;47.832;-3.800;2023-07-16T13:01:46;10.57;;;5.43;;
50880;SDS011;36858;47.832;-3.800;2023-07-16T13:04:13;8.47;;;5.40;;
50880;SDS011;36858;47.832;-3.800;2023-07-16T13:06:40;8.57;;;5.17;;
50880;SDS011;36858;47.832;-3.800;2023-07-16T13:09:06;12.67;;;6.40;;
50880;SDS011;36858;47.832;-3.800;2023-07-16T13:11:33;8.13;;;5.53;;
50880;SDS011;36858;47.832;-3.800;2023-07-16T13:14:02;9.43;;;5.80;;
50880;SDS011;36858;47.832;-3.800;2023-07-16T13:16:29;8.63;;;5.50;;
50880;SDS011;36858;47.832;-3.800;2023-07-16T13:18:56;7.63;;;5.10;;
50880;SDS011;36858;47.832;-3.800;2023-07-16T13:21:23;6.70;;;5.37;;
50880;SDS011;36858;47.832;-3.800;2023-07-16T13:23:49;10.20;;;5.37;;
50880;SDS011;36858;47.832;-3.800;2023-07-16T13:26:16;9.00;;;5.53;;
50880;SDS011;36858;47.832;-3.800;2023-07-16T13:28:44;9.33;;;5.60;;
50880;SDS011;36858;47.832;-3.800;2023-07-16T13:31:11;10.97;;;5.53;;
50880;SDS011;36858;47.832;-3.800;2023-07-16T13:33:37;6.20;;;4.67;;
50880;SDS011;36858;47.832;-3.800;2023-07-16T13:36:05;8.87;;;5.20;;
50880;SDS011;36858;47.832;-3.800;2023-07-16T13:38:32;9.80;;;4.23;;
50880;SDS011;36858;47.832;-3.800;2023-07-16T13:40:59;7.07;;;4.70;;
50880;SDS011;36858;47.832;-3.800;2023-07-16T13:43:26;9.10;;;4.47;;
50880;SDS011;36858;47.832;-3.800;2023-07-16T13:45:52;11.37;;;4.93;;
50880;SDS011;36858;47.832;-3.800;2023-07-16T13:48:19;6.53;;;4.33;;
50880;SDS011;36858;47.832;-3.800;2023-07-16T13:50:46;6.83;;;4.43;;
50880;SDS011;36858;47.832;-3.800;2023-07-16T13:53:13;6.27;;;4.40;;
50880;SDS011;36858;47.832;-3.800;2023-07-16T13:55:41;5.13;;;4.17;;
50880;SDS011;36858;47.832;-3.800;2023-07-16T13:58:07;9.17;;;4.60;;
50880;SDS011;36858;47.832;-3.800;2023-07-16T14:00:34;7.97;;;3.80;;
50880;SDS011;36858;47.832;-3.800;2023-07-16T14:03:01;9.23;;;3.50;;
50880;SDS011;36858;47.832;-3.800;2023-07-16T14:05:28;6.27;;;3.60;;
50880;SDS011;36858;47.832;-3.800;2023-07-16T14:07:55;6.80;;;3.93;;
50880;SDS011;36858;47.832;-3.800;2023-07-16T14:10:22;6.63;;;3.70;;
50880;SDS011;36858;47.832;-3.800;2023-07-16T14:12:49;6.83;;;3.87;;
50880;SDS011;36858;47.832;-3.800;2023-07-16T14:15:16;5.40;;;3.60;;
50880;SDS011;36858;47.832;-3.800;2023-07-16T14:17:44;6.87;;;3.90;;
50880;SDS011;36858;47.832;-3.800;2023-07-16T14:20:11;6.80;;;3.80;;
50880;SDS011;36858;47.832;-3.800;2023-07-16T14:22:38;8.00;;;3.40;;
50880;SDS011;36858;47.832;-3.800;2023-07-16T14:25:05;5.93;;;3.50;;
50880;SDS011;36858;47.832;-3.800;2023-07-16T14:27:32;8.07;;;3.43;;
50880;SDS011;36858;47.832;-3.800;2023-07-16T14:29:59;9.20;;;3.73;;
50880;SDS011;36858;47.832;-3.800;2023-07-16T14:32:32;5.40;;;2.80;;
50880;SDS011;36858;47.832;-3.800;2023-07-16T14:35:00;9.00;;;3.87;;
50880;SDS011;36858;47.832;-3.800;2023-07-16T14:37:27;8.37;;;3.50;;
50880;SDS011;36858;47.832;-3.800;2023-07-16T14:39:54;12.67;;;3.87;;
50880;SDS011;36858;47.832;-3.800;2023-07-16T14:42:21;7.13;;;3.03;;